sensor_id;sensor_type;location;lat;lon;timestamp;temperature;humidity
1413;DHT22;701;52.526;13.408;2023-04-12T00:00:34;6.10;33.50
1413;DHT22;701;52.526;13.408;2023-04-12T00:03:03;6.10;33.50
1413;DHT22;701;52.526;13.408;2023-04-12T00:05:30;6.00;33.40
1413;DHT22;701;52.526;13.408;2023-04-12T00:07:56;6.00;33.40
1413;DHT22;701;52.526;13.408;2023-04-12T00:10:25;6.00;33.40
1413;DHT22;701;52.526;13.408;2023-04-12T00:12:51;6.00;33.40
1413;DHT22;701;52.526;13.408;2023-04-12T00:15:17;5.90;33.30
1413;DHT22;701;52.526;13.408;2023-04-12T00:17:43;5.90;33.40
1413;DHT22;701;52.526;13.408;2023-04-12T00:20:09;5.90;33.70
1413;DHT22;701;52.526;13.408;2023-04-12T00:22:39;5.90;34.30
1413;DHT22;701;52.526;13.408;2023-04-12T00:25:06;5.80;34.10
1413;DHT22;701;52.526;13.408;2023-04-12T00:27:31;5.80;34.20
1413;DHT22;701;52.526;13.408;2023-04-12T00:29:57;5.80;34.40
1413;DHT22;701;52.526;13.408;2023-04-12T00:32:23;5.80;34.60
1413;DHT22;701;52.526;13.408;2023-04-12T00:34:50;5.80;34.80
1413;DHT22;701;52.526;13.408;2023-04-12T00:37:19;5.70;34.90
1413;DHT22;701;52.526;13.408;2023-04-12T00:39:45;5.70;34.90
1413;DHT22;701;52.526;13.408;2023-04-12T00:42:11;5.70;35.00
1413;DHT22;701;52.526;13.408;2023-04-12T00:44:37;5.70;35.10
1413;DHT22;701;52.526;13.408;2023-04-12T00:47:03;5.70;35.20
1413;DHT22;701;52.526;13.408;2023-04-12T00:49:33;5.70;35.40
1413;DHT22;701;52.526;13.408;2023-04-12T00:52:09;5.70;35.50
1413;DHT22;701;52.526;13.408;2023-04-12T00:54:39;5.70;35.50
1413;DHT22;701;52.526;13.408;2023-04-12T00:57:05;5.70;35.60
1413;DHT22;701;52.526;13.408;2023-04-12T00:59:31;5.60;35.80
1413;DHT22;701;52.526;13.408;2023-04-12T01:01:58;5.60;36.00
1413;DHT22;701;52.526;13.408;2023-04-12T01:04:25;5.60;36.10
1413;DHT22;701;52.526;13.408;2023-04-12T01:06:59;5.60;36.10
1413;DHT22;701;52.526;13.408;2023-04-12T01:14:34;5.60;36.20
1413;DHT22;701;52.526;13.408;2023-04-12T01:17:06;5.60;36.10
1413;DHT22;701;52.526;13.408;2023-04-12T01:28:04;5.40;36.20
1413;DHT22;701;52.526;13.408;2023-04-12T01:30:32;5.40;36.20
1413;DHT22;701;52.526;13.408;2023-04-12T01:33:03;5.40;36.50
1413;DHT22;701;52.526;13.408;2023-04-12T01:35:30;5.30;37.20
1413;DHT22;701;52.526;13.408;2023-04-12T01:37:57;5.30;37.20
1413;DHT22;701;52.526;13.408;2023-04-12T01:40:25;5.30;37.20
1413;DHT22;701;52.526;13.408;2023-04-12T01:43:09;5.30;37.20
1413;DHT22;701;52.526;13.408;2023-04-12T01:45:35;5.30;37.20
1413;DHT22;701;52.526;13.408;2023-04-12T01:48:07;5.30;37.20
1413;DHT22;701;52.526;13.408;2023-04-12T01:53:22;5.30;37.20
1413;DHT22;701;52.526;13.408;2023-04-12T01:55:49;5.30;37.20
1413;DHT22;701;52.526;13.408;2023-04-12T01:58:19;5.20;37.40
1413;DHT22;701;52.526;13.408;2023-04-12T02:00:47;5.20;37.70
1413;DHT22;701;52.526;13.408;2023-04-12T02:03:14;5.20;38.10
1413;DHT22;701;52.526;13.408;2023-04-12T02:05:41;5.20;38.30
1413;DHT22;701;52.526;13.408;2023-04-12T02:08:07;5.20;37.60
1413;DHT22;701;52.526;13.408;2023-04-12T02:10:33;5.20;37.70
1413;DHT22;701;52.526;13.408;2023-04-12T02:13:01;5.20;37.70
1413;DHT22;701;52.526;13.408;2023-04-12T02:15:29;5.20;37.70
1413;DHT22;701;52.526;13.408;2023-04-12T02:17:55;5.20;37.70
1413;DHT22;701;52.526;13.408;2023-04-12T02:20:22;5.10;37.50
1413;DHT22;701;52.526;13.408;2023-04-12T02:22:52;5.10;37.50
1413;DHT22;701;52.526;13.408;2023-04-12T02:25:17;5.10;37.40
1413;DHT22;701;52.526;13.408;2023-04-12T02:27:44;5.10;37.10
1413;DHT22;701;52.526;13.408;2023-04-12T02:30:12;5.10;37.40
1413;DHT22;701;52.526;13.408;2023-04-12T02:32:38;5.00;37.40
1413;DHT22;701;52.526;13.408;2023-04-12T02:35:17;5.00;37.00
1413;DHT22;701;52.526;13.408;2023-04-12T02:37:45;5.00;37.30
1413;DHT22;701;52.526;13.408;2023-04-12T02:40:12;5.00;37.50
1413;DHT22;701;52.526;13.408;2023-04-12T02:42:43;5.00;37.40
1413;DHT22;701;52.526;13.408;2023-04-12T02:45:11;4.90;37.00
1413;DHT22;701;52.526;13.408;2023-04-12T02:47:38;4.90;36.90
1413;DHT22;701;52.526;13.408;2023-04-12T02:50:06;4.90;37.10
1413;DHT22;701;52.526;13.408;2023-04-12T02:52:38;4.90;37.20
1413;DHT22;701;52.526;13.408;2023-04-12T02:55:07;4.80;36.80
1413;DHT22;701;52.526;13.408;2023-04-12T02:57:33;4.80;36.90
1413;DHT22;701;52.526;13.408;2023-04-12T03:00:01;4.80;37.20
1413;DHT22;701;52.526;13.408;2023-04-12T03:02:40;4.70;37.10
1413;DHT22;701;52.526;13.408;2023-04-12T03:05:11;4.70;37.60
1413;DHT22;701;52.526;13.408;2023-04-12T03:07:40;4.70;37.40
1413;DHT22;701;52.526;13.408;2023-04-12T03:10:08;4.70;37.50
1413;DHT22;701;52.526;13.408;2023-04-12T03:12:40;4.70;37.60
1413;DHT22;701;52.526;13.408;2023-04-12T03:15:17;4.60;37.70
1413;DHT22;701;52.526;13.408;2023-04-12T03:17:47;4.60;37.50
1413;DHT22;701;52.526;13.408;2023-04-12T03:20:14;4.60;37.40
1413;DHT22;701;52.526;13.408;2023-04-12T03:22:47;4.60;37.70
1413;DHT22;701;52.526;13.408;2023-04-12T03:25:13;4.60;38.00
1413;DHT22;701;52.526;13.408;2023-04-12T03:27:45;4.60;37.90
1413;DHT22;701;52.526;13.408;2023-04-12T03:30:14;4.60;38.20
1413;DHT22;701;52.526;13.408;2023-04-12T03:32:41;4.60;38.10
1413;DHT22;701;52.526;13.408;2023-04-12T03:35:09;4.50;37.90
1413;DHT22;701;52.526;13.408;2023-04-12T03:37:39;4.50;37.90
1413;DHT22;701;52.526;13.408;2023-04-12T03:40:06;4.50;38.60
1413;DHT22;701;52.526;13.408;2023-04-12T03:42:32;4.50;37.90
1413;DHT22;701;52.526;13.408;2023-04-12T03:44:59;4.50;38.10
1413;DHT22;701;52.526;13.408;2023-04-12T03:47:26;4.50;38.00
1413;DHT22;701;52.526;13.408;2023-04-12T03:49:54;4.40;38.00
1413;DHT22;701;52.526;13.408;2023-04-12T03:52:20;4.40;38.20
1413;DHT22;701;52.526;13.408;2023-04-12T03:54:46;4.40;38.30
1413;DHT22;701;52.526;13.408;2023-04-12T03:57:18;4.40;38.10
1413;DHT22;701;52.526;13.408;2023-04-12T03:59:47;4.40;38.10
1413;DHT22;701;52.526;13.408;2023-04-12T04:02:14;4.40;38.10
1413;DHT22;701;52.526;13.408;2023-04-12T04:04:45;4.40;38.00
1413;DHT22;701;52.526;13.408;2023-04-12T04:07:16;4.40;38.10
1413;DHT22;701;52.526;13.408;2023-04-12T04:09:44;4.40;38.80
1413;DHT22;701;52.526;13.408;2023-04-12T04:12:11;4.40;39.00
1413;DHT22;701;52.526;13.408;2023-04-12T04:14:41;4.30;38.80
1413;DHT22;701;52.526;13.408;2023-04-12T04:17:10;4.30;38.90
1413;DHT22;701;52.526;13.408;2023-04-12T04:19:35;4.40;38.90
1413;DHT22;701;52.526;13.408;2023-04-12T04:22:01;4.30;39.30
1413;DHT22;701;52.526;13.408;2023-04-12T04:24:27;4.40;38.90
1413;DHT22;701;52.526;13.408;2023-04-12T04:26:57;4.40;39.10
1413;DHT22;701;52.526;13.408;2023-04-12T04:29:26;4.40;38.80
1413;DHT22;701;52.526;13.408;2023-04-12T04:31:54;4.40;39.20
1413;DHT22;701;52.526;13.408;2023-04-12T04:34:21;4.40;38.60
1413;DHT22;701;52.526;13.408;2023-04-12T04:36:49;4.40;38.60
1413;DHT22;701;52.526;13.408;2023-04-12T04:39:24;4.40;38.90
1413;DHT22;701;52.526;13.408;2023-04-12T04:41:52;4.50;39.00
1413;DHT22;701;52.526;13.408;2023-04-12T04:44:53;4.50;38.80
1413;DHT22;701;52.526;13.408;2023-04-12T04:47:28;4.50;38.70
1413;DHT22;701;52.526;13.408;2023-04-12T04:49:55;4.60;38.80
1413;DHT22;701;52.526;13.408;2023-04-12T04:52:25;4.60;38.60
1413;DHT22;701;52.526;13.408;2023-04-12T04:54:55;4.60;38.30
1413;DHT22;701;52.526;13.408;2023-04-12T04:57:24;4.60;38.10
1413;DHT22;701;52.526;13.408;2023-04-12T04:59:53;4.60;37.90
1413;DHT22;701;52.526;13.408;2023-04-12T05:02:19;4.60;37.90
1413;DHT22;701;52.526;13.408;2023-04-12T05:04:46;4.70;37.50
1413;DHT22;701;52.526;13.408;2023-04-12T05:07:15;4.70;37.30
1413;DHT22;701;52.526;13.408;2023-04-12T05:09:43;4.80;37.00
1413;DHT22;701;52.526;13.408;2023-04-12T05:12:10;4.80;36.80
1413;DHT22;701;52.526;13.408;2023-04-12T05:14:36;4.80;36.80
1413;DHT22;701;52.526;13.408;2023-04-12T05:17:03;4.80;36.80
1413;DHT22;701;52.526;13.408;2023-04-12T05:19:28;4.90;36.90
1413;DHT22;701;52.526;13.408;2023-04-12T05:21:54;4.90;36.40
1413;DHT22;701;52.526;13.408;2023-04-12T05:24:21;4.90;36.50
1413;DHT22;701;52.526;13.408;2023-04-12T05:26:47;4.90;36.30
1413;DHT22;701;52.526;13.408;2023-04-12T05:29:13;5.00;36.00
1413;DHT22;701;52.526;13.408;2023-04-12T05:31:39;5.00;35.90
1413;DHT22;701;52.526;13.408;2023-04-12T05:34:10;5.10;35.50
1413;DHT22;701;52.526;13.408;2023-04-12T05:36:41;5.10;35.40
1413;DHT22;701;52.526;13.408;2023-04-12T05:39:07;5.20;35.30
1413;DHT22;701;52.526;13.408;2023-04-12T05:41:34;5.20;34.70
1413;DHT22;701;52.526;13.408;2023-04-12T05:44:00;5.30;34.80
1413;DHT22;701;52.526;13.408;2023-04-12T05:46:28;5.30;34.60
1413;DHT22;701;52.526;13.408;2023-04-12T05:48:54;5.40;34.00
1413;DHT22;701;52.526;13.408;2023-04-12T05:51:20;5.40;33.90
1413;DHT22;701;52.526;13.408;2023-04-12T05:53:46;5.50;34.00
1413;DHT22;701;52.526;13.408;2023-04-12T05:56:12;5.50;33.80
1413;DHT22;701;52.526;13.408;2023-04-12T05:58:41;5.60;33.70
1413;DHT22;701;52.526;13.408;2023-04-12T06:01:07;5.70;33.60
1413;DHT22;701;52.526;13.408;2023-04-12T06:03:33;5.80;33.50
1413;DHT22;701;52.526;13.408;2023-04-12T06:06:06;5.80;33.20
1413;DHT22;701;52.526;13.408;2023-04-12T06:08:32;5.90;33.30
1413;DHT22;701;52.526;13.408;2023-04-12T06:10:59;6.00;32.90
1413;DHT22;701;52.526;13.408;2023-04-12T06:13:26;6.10;32.60
1413;DHT22;701;52.526;13.408;2023-04-12T06:15:52;6.10;32.20
1413;DHT22;701;52.526;13.408;2023-04-12T06:18:18;6.20;32.00
1413;DHT22;701;52.526;13.408;2023-04-12T06:20:44;6.30;31.80
1413;DHT22;701;52.526;13.408;2023-04-12T06:23:11;6.40;31.00
1413;DHT22;701;52.526;13.408;2023-04-12T06:25:37;6.50;30.60
1413;DHT22;701;52.526;13.408;2023-04-12T06:28:04;6.50;30.50
1413;DHT22;701;52.526;13.408;2023-04-12T06:30:33;6.60;30.10
1413;DHT22;701;52.526;13.408;2023-04-12T06:32:58;6.70;30.10
1413;DHT22;701;52.526;13.408;2023-04-12T06:35:24;6.80;29.80
1413;DHT22;701;52.526;13.408;2023-04-12T06:37:50;6.90;29.60
1413;DHT22;701;52.526;13.408;2023-04-12T06:40:16;6.90;28.80
1413;DHT22;701;52.526;13.408;2023-04-12T06:42:42;7.00;28.60
1413;DHT22;701;52.526;13.408;2023-04-12T06:45:09;7.10;28.80
1413;DHT22;701;52.526;13.408;2023-04-12T06:47:35;7.20;28.40
1413;DHT22;701;52.526;13.408;2023-04-12T06:50:01;7.30;28.40
1413;DHT22;701;52.526;13.408;2023-04-12T06:52:27;7.30;27.90
1413;DHT22;701;52.526;13.408;2023-04-12T06:54:54;7.40;27.60
1413;DHT22;701;52.526;13.408;2023-04-12T06:57:21;7.50;27.60
1413;DHT22;701;52.526;13.408;2023-04-12T06:59:47;7.60;27.20
1413;DHT22;701;52.526;13.408;2023-04-12T07:02:12;7.70;26.90
1413;DHT22;701;52.526;13.408;2023-04-12T07:04:39;7.80;26.90
1413;DHT22;701;52.526;13.408;2023-04-12T07:07:05;8.00;26.80
1413;DHT22;701;52.526;13.408;2023-04-12T07:09:31;8.00;26.70
1413;DHT22;701;52.526;13.408;2023-04-12T07:12:00;8.10;24.90
1413;DHT22;701;52.526;13.408;2023-04-12T07:14:27;8.20;25.30
1413;DHT22;701;52.526;13.408;2023-04-12T07:16:53;8.30;25.00
1413;DHT22;701;52.526;13.408;2023-04-12T07:19:19;8.40;24.80
1413;DHT22;701;52.526;13.408;2023-04-12T07:21:45;8.50;24.20
1413;DHT22;701;52.526;13.408;2023-04-12T07:24:10;8.60;23.90
1413;DHT22;701;52.526;13.408;2023-04-12T07:26:36;8.70;23.50
1413;DHT22;701;52.526;13.408;2023-04-12T07:29:03;8.80;23.20
1413;DHT22;701;52.526;13.408;2023-04-12T07:31:28;8.90;23.10
1413;DHT22;701;52.526;13.408;2023-04-12T07:33:57;9.00;22.80
1413;DHT22;701;52.526;13.408;2023-04-12T07:36:22;9.10;22.50
1413;DHT22;701;52.526;13.408;2023-04-12T07:38:48;9.20;21.90
1413;DHT22;701;52.526;13.408;2023-04-12T07:41:20;9.30;21.80
1413;DHT22;701;52.526;13.408;2023-04-12T07:43:46;9.40;21.30
1413;DHT22;701;52.526;13.408;2023-04-12T07:46:12;9.60;20.50
1413;DHT22;701;52.526;13.408;2023-04-12T07:48:37;9.70;20.50
1413;DHT22;701;52.526;13.408;2023-04-12T07:51:03;9.90;20.20
1413;DHT22;701;52.526;13.408;2023-04-12T07:53:29;10.50;18.40
1413;DHT22;701;52.526;13.408;2023-04-12T07:55:55;12.10;16.40
1413;DHT22;701;52.526;13.408;2023-04-12T07:58:23;14.20;14.50
1413;DHT22;701;52.526;13.408;2023-04-12T08:00:49;16.60;10.80
1413;DHT22;701;52.526;13.408;2023-04-12T08:03:17;18.90;6.60
1413;DHT22;701;52.526;13.408;2023-04-12T08:05:43;20.10;3.00
1413;DHT22;701;52.526;13.408;2023-04-12T08:08:10;20.10;2.30
1413;DHT22;701;52.526;13.408;2023-04-12T08:10:37;19.60;1.00
1413;DHT22;701;52.526;13.408;2023-04-12T08:13:04;18.90;1.00
1413;DHT22;701;52.526;13.408;2023-04-12T08:15:30;18.10;1.00
1413;DHT22;701;52.526;13.408;2023-04-12T08:17:56;18.00;1.00
1413;DHT22;701;52.526;13.408;2023-04-12T08:20:22;18.90;1.00
1413;DHT22;701;52.526;13.408;2023-04-12T08:22:48;19.60;1.00
1413;DHT22;701;52.526;13.408;2023-04-12T08:25:14;21.00;1.00
1413;DHT22;701;52.526;13.408;2023-04-12T08:27:44;22.40;1.00
1413;DHT22;701;52.526;13.408;2023-04-12T08:30:10;24.00;1.00
1413;DHT22;701;52.526;13.408;2023-04-12T08:32:36;25.50;1.00
1413;DHT22;701;52.526;13.408;2023-04-12T08:35:06;27.00;1.00
1413;DHT22;701;52.526;13.408;2023-04-12T08:37:32;28.30;1.00
1413;DHT22;701;52.526;13.408;2023-04-12T08:40:00;28.90;1.00
1413;DHT22;701;52.526;13.408;2023-04-12T08:42:27;29.50;1.00
1413;DHT22;701;52.526;13.408;2023-04-12T08:44:52;29.80;1.00
1413;DHT22;701;52.526;13.408;2023-04-12T08:47:19;30.40;1.00
1413;DHT22;701;52.526;13.408;2023-04-12T08:49:46;31.00;1.00
1413;DHT22;701;52.526;13.408;2023-04-12T08:52:12;31.50;1.00
1413;DHT22;701;52.526;13.408;2023-04-12T08:54:38;31.30;1.00
1413;DHT22;701;52.526;13.408;2023-04-12T08:57:05;31.50;1.00
1413;DHT22;701;52.526;13.408;2023-04-12T08:59:36;31.90;1.00
1413;DHT22;701;52.526;13.408;2023-04-12T09:02:02;32.40;1.00
1413;DHT22;701;52.526;13.408;2023-04-12T09:04:28;32.60;1.00
1413;DHT22;701;52.526;13.408;2023-04-12T09:06:56;32.40;1.00
1413;DHT22;701;52.526;13.408;2023-04-12T09:09:45;32.30;1.00
1413;DHT22;701;52.526;13.408;2023-04-12T09:12:11;32.50;1.00
1413;DHT22;701;52.526;13.408;2023-04-12T09:14:38;32.70;1.00
1413;DHT22;701;52.526;13.408;2023-04-12T09:17:04;33.00;1.00
1413;DHT22;701;52.526;13.408;2023-04-12T09:19:45;33.40;1.00
1413;DHT22;701;52.526;13.408;2023-04-12T09:22:11;33.80;1.00
1413;DHT22;701;52.526;13.408;2023-04-12T09:24:47;34.00;1.00
1413;DHT22;701;52.526;13.408;2023-04-12T09:27:15;34.30;1.00
1413;DHT22;701;52.526;13.408;2023-04-12T09:29:41;34.30;1.00
1413;DHT22;701;52.526;13.408;2023-04-12T09:32:08;34.20;1.00
1413;DHT22;701;52.526;13.408;2023-04-12T09:34:34;34.00;1.00
1413;DHT22;701;52.526;13.408;2023-04-12T09:37:14;33.90;1.00
1413;DHT22;701;52.526;13.408;2023-04-12T09:39:41;33.60;1.00
1413;DHT22;701;52.526;13.408;2023-04-12T09:42:11;33.10;1.00
1413;DHT22;701;52.526;13.408;2023-04-12T09:44:38;32.70;1.00
1413;DHT22;701;52.526;13.408;2023-04-12T09:47:04;32.10;1.00
1413;DHT22;701;52.526;13.408;2023-04-12T09:49:40;31.80;1.00
1413;DHT22;701;52.526;13.408;2023-04-12T09:52:08;31.50;1.00
1413;DHT22;701;52.526;13.408;2023-04-12T09:54:45;31.20;1.00
1413;DHT22;701;52.526;13.408;2023-04-12T09:57:11;31.20;1.00
1413;DHT22;701;52.526;13.408;2023-04-12T09:59:41;31.10;1.00
1413;DHT22;701;52.526;13.408;2023-04-12T10:02:20;30.90;1.00
1413;DHT22;701;52.526;13.408;2023-04-12T10:04:47;30.70;1.00
1413;DHT22;701;52.526;13.408;2023-04-12T10:07:13;30.60;1.00
1413;DHT22;701;52.526;13.408;2023-04-12T10:09:40;30.30;1.00
1413;DHT22;701;52.526;13.408;2023-04-12T10:12:06;30.00;1.00
1413;DHT22;701;52.526;13.408;2023-04-12T10:14:33;29.50;1.00
1413;DHT22;701;52.526;13.408;2023-04-12T10:17:01;29.10;1.00
1413;DHT22;701;52.526;13.408;2023-04-12T10:19:29;28.70;1.00
1413;DHT22;701;52.526;13.408;2023-04-12T10:21:56;28.40;1.00
1413;DHT22;701;52.526;13.408;2023-04-12T10:24:27;28.40;1.00
1413;DHT22;701;52.526;13.408;2023-04-12T10:26:54;28.30;1.00
1413;DHT22;701;52.526;13.408;2023-04-12T10:29:39;28.10;1.00
1413;DHT22;701;52.526;13.408;2023-04-12T10:32:22;27.60;1.00
1413;DHT22;701;52.526;13.408;2023-04-12T10:34:56;26.80;1.00
1413;DHT22;701;52.526;13.408;2023-04-12T10:38:03;26.50;1.00
1413;DHT22;701;52.526;13.408;2023-04-12T10:40:31;26.30;1.00
1413;DHT22;701;52.526;13.408;2023-04-12T10:45:48;25.70;1.00
1413;DHT22;701;52.526;13.408;2023-04-12T10:48:30;25.40;1.00
1413;DHT22;701;52.526;13.408;2023-04-12T10:53:50;24.80;1.00
1413;DHT22;701;52.526;13.408;2023-04-12T10:59:00;24.50;1.00
1413;DHT22;701;52.526;13.408;2023-04-12T11:01:30;24.30;1.00
1413;DHT22;701;52.526;13.408;2023-04-12T11:14:35;22.60;1.00
1413;DHT22;701;52.526;13.408;2023-04-12T11:21:59;22.10;1.00
1413;DHT22;701;52.526;13.408;2023-04-12T11:24:26;21.80;1.00
1413;DHT22;701;52.526;13.408;2023-04-12T11:26:53;21.70;1.00
1413;DHT22;701;52.526;13.408;2023-04-12T11:29:28;21.60;1.00
1413;DHT22;701;52.526;13.408;2023-04-12T11:31:54;21.40;1.00
1413;DHT22;701;52.526;13.408;2023-04-12T11:34:21;21.10;1.00
1413;DHT22;701;52.526;13.408;2023-04-12T11:36:51;20.90;1.00
1413;DHT22;701;52.526;13.408;2023-04-12T11:39:18;20.70;1.00
1413;DHT22;701;52.526;13.408;2023-04-12T11:41:45;20.50;1.00
1413;DHT22;701;52.526;13.408;2023-04-12T11:44:13;20.30;1.00
1413;DHT22;701;52.526;13.408;2023-04-12T11:46:39;20.20;1.00
1413;DHT22;701;52.526;13.408;2023-04-12T11:49:05;19.90;1.00
1413;DHT22;701;52.526;13.408;2023-04-12T11:51:31;19.60;1.00
1413;DHT22;701;52.526;13.408;2023-04-12T11:53:57;19.30;1.00
1413;DHT22;701;52.526;13.408;2023-04-12T11:56:24;19.10;1.00
1413;DHT22;701;52.526;13.408;2023-04-12T11:58:50;18.90;1.00
1413;DHT22;701;52.526;13.408;2023-04-12T12:01:18;18.60;1.00
1413;DHT22;701;52.526;13.408;2023-04-12T12:03:45;18.50;1.00
1413;DHT22;701;52.526;13.408;2023-04-12T12:06:11;18.40;1.00
1413;DHT22;701;52.526;13.408;2023-04-12T12:08:38;18.30;1.00
1413;DHT22;701;52.526;13.408;2023-04-12T12:11:04;18.30;1.00
1413;DHT22;701;52.526;13.408;2023-04-12T12:13:47;18.20;1.00
1413;DHT22;701;52.526;13.408;2023-04-12T12:16:14;18.30;1.00
1413;DHT22;701;52.526;13.408;2023-04-12T12:18:44;18.50;1.00
1413;DHT22;701;52.526;13.408;2023-04-12T12:21:12;18.70;1.00
1413;DHT22;701;52.526;13.408;2023-04-12T12:23:38;18.80;1.00
1413;DHT22;701;52.526;13.408;2023-04-12T12:26:06;19.00;1.00
1413;DHT22;701;52.526;13.408;2023-04-12T12:28:39;19.10;1.00
1413;DHT22;701;52.526;13.408;2023-04-12T12:31:11;19.20;1.00
1413;DHT22;701;52.526;13.408;2023-04-12T12:33:38;19.30;1.00
1413;DHT22;701;52.526;13.408;2023-04-12T12:36:08;19.40;1.00
1413;DHT22;701;52.526;13.408;2023-04-12T12:38:37;19.60;1.00
1413;DHT22;701;52.526;13.408;2023-04-12T12:41:23;19.80;1.00
1413;DHT22;701;52.526;13.408;2023-04-12T12:43:52;20.00;1.00
1413;DHT22;701;52.526;13.408;2023-04-12T12:46:18;20.10;1.00
1413;DHT22;701;52.526;13.408;2023-04-12T12:48:46;20.10;1.00
1413;DHT22;701;52.526;13.408;2023-04-12T12:51:14;20.10;1.00
1413;DHT22;701;52.526;13.408;2023-04-12T12:53:42;20.10;1.00
1413;DHT22;701;52.526;13.408;2023-04-12T12:56:09;20.10;1.00
1413;DHT22;701;52.526;13.408;2023-04-12T12:58:36;20.10;1.00
1413;DHT22;701;52.526;13.408;2023-04-12T13:01:03;20.10;1.00
1413;DHT22;701;52.526;13.408;2023-04-12T13:03:29;20.10;1.00
1413;DHT22;701;52.526;13.408;2023-04-12T13:05:55;20.00;1.00
1413;DHT22;701;52.526;13.408;2023-04-12T13:08:22;19.90;1.00
1413;DHT22;701;52.526;13.408;2023-04-12T13:10:49;19.90;1.00
1413;DHT22;701;52.526;13.408;2023-04-12T13:13:15;19.80;1.00
1413;DHT22;701;52.526;13.408;2023-04-12T13:15:41;19.80;1.00
1413;DHT22;701;52.526;13.408;2023-04-12T13:18:07;19.80;1.00
1413;DHT22;701;52.526;13.408;2023-04-12T13:20:33;19.80;1.00
1413;DHT22;701;52.526;13.408;2023-04-12T13:22:59;19.80;1.00
1413;DHT22;701;52.526;13.408;2023-04-12T13:25:25;19.90;1.00
1413;DHT22;701;52.526;13.408;2023-04-12T13:27:51;20.10;1.00
1413;DHT22;701;52.526;13.408;2023-04-12T13:30:18;20.10;1.00
1413;DHT22;701;52.526;13.408;2023-04-12T13:32:44;20.00;1.00
1413;DHT22;701;52.526;13.408;2023-04-12T13:35:10;19.90;1.00
1413;DHT22;701;52.526;13.408;2023-04-12T13:37:36;19.80;1.00
1413;DHT22;701;52.526;13.408;2023-04-12T13:40:03;19.60;1.00
1413;DHT22;701;52.526;13.408;2023-04-12T13:42:29;19.40;1.00
1413;DHT22;701;52.526;13.408;2023-04-12T13:44:54;19.30;1.00
1413;DHT22;701;52.526;13.408;2023-04-12T13:47:21;19.30;1.00
1413;DHT22;701;52.526;13.408;2023-04-12T13:49:47;19.30;1.00
1413;DHT22;701;52.526;13.408;2023-04-12T13:52:14;19.40;1.00
1413;DHT22;701;52.526;13.408;2023-04-12T13:54:41;19.50;1.00
1413;DHT22;701;52.526;13.408;2023-04-12T13:57:08;19.50;1.00
1413;DHT22;701;52.526;13.408;2023-04-12T13:59:34;19.60;1.00
1413;DHT22;701;52.526;13.408;2023-04-12T14:02:00;19.60;1.00
1413;DHT22;701;52.526;13.408;2023-04-12T14:04:27;19.50;1.00
1413;DHT22;701;52.526;13.408;2023-04-12T14:06:53;19.50;1.00
1413;DHT22;701;52.526;13.408;2023-04-12T14:09:31;19.50;1.00
1413;DHT22;701;52.526;13.408;2023-04-12T14:11:59;19.40;1.00
1413;DHT22;701;52.526;13.408;2023-04-12T14:14:26;19.30;1.00
1413;DHT22;701;52.526;13.408;2023-04-12T14:16:53;19.20;1.00
1413;DHT22;701;52.526;13.408;2023-04-12T14:19:22;19.00;1.00
1413;DHT22;701;52.526;13.408;2023-04-12T14:21:48;18.80;1.00
1413;DHT22;701;52.526;13.408;2023-04-12T14:24:15;18.60;1.00
1413;DHT22;701;52.526;13.408;2023-04-12T14:26:41;18.40;1.00
1413;DHT22;701;52.526;13.408;2023-04-12T14:29:07;18.30;1.00
1413;DHT22;701;52.526;13.408;2023-04-12T14:31:34;18.20;1.00
1413;DHT22;701;52.526;13.408;2023-04-12T14:34:03;18.00;1.00
1413;DHT22;701;52.526;13.408;2023-04-12T14:36:29;17.90;1.00
1413;DHT22;701;52.526;13.408;2023-04-12T14:38:56;17.80;1.00
1413;DHT22;701;52.526;13.408;2023-04-12T14:41:25;17.70;1.00
1413;DHT22;701;52.526;13.408;2023-04-12T14:43:51;17.70;1.00
1413;DHT22;701;52.526;13.408;2023-04-12T14:46:17;17.60;1.00
1413;DHT22;701;52.526;13.408;2023-04-12T14:48:43;17.50;1.00
1413;DHT22;701;52.526;13.408;2023-04-12T14:51:11;17.30;1.00
1413;DHT22;701;52.526;13.408;2023-04-12T14:53:37;17.20;1.00
1413;DHT22;701;52.526;13.408;2023-04-12T14:56:03;17.20;1.00
1413;DHT22;701;52.526;13.408;2023-04-12T14:58:29;17.10;1.00
1413;DHT22;701;52.526;13.408;2023-04-12T15:00:58;17.00;1.00
1413;DHT22;701;52.526;13.408;2023-04-12T15:03:24;16.80;1.00
1413;DHT22;701;52.526;13.408;2023-04-12T15:05:55;16.70;1.00
1413;DHT22;701;52.526;13.408;2023-04-12T15:08:22;16.70;1.00
1413;DHT22;701;52.526;13.408;2023-04-12T15:10:48;16.70;1.00
1413;DHT22;701;52.526;13.408;2023-04-12T15:13:14;16.60;1.00
1413;DHT22;701;52.526;13.408;2023-04-12T15:15:39;16.70;1.00
1413;DHT22;701;52.526;13.408;2023-04-12T15:18:06;16.70;1.00
1413;DHT22;701;52.526;13.408;2023-04-12T15:20:32;16.50;1.00
1413;DHT22;701;52.526;13.408;2023-04-12T15:22:58;16.50;1.00
1413;DHT22;701;52.526;13.408;2023-04-12T15:25:24;16.40;1.00
1413;DHT22;701;52.526;13.408;2023-04-12T15:27:50;16.40;1.00
1413;DHT22;701;52.526;13.408;2023-04-12T15:30:17;16.20;1.00
1413;DHT22;701;52.526;13.408;2023-04-12T15:32:42;16.10;1.00
1413;DHT22;701;52.526;13.408;2023-04-12T15:35:08;16.00;1.00
1413;DHT22;701;52.526;13.408;2023-04-12T15:37:35;15.80;1.00
1413;DHT22;701;52.526;13.408;2023-04-12T15:40:02;15.70;1.00
1413;DHT22;701;52.526;13.408;2023-04-12T15:42:41;15.60;1.70
1413;DHT22;701;52.526;13.408;2023-04-12T15:45:08;15.50;1.60
1413;DHT22;701;52.526;13.408;2023-04-12T15:47:34;15.40;2.00
1413;DHT22;701;52.526;13.408;2023-04-12T15:50:02;15.30;2.50
1413;DHT22;701;52.526;13.408;2023-04-12T15:52:30;15.20;3.40
1413;DHT22;701;52.526;13.408;2023-04-12T15:54:56;15.20;3.20
1413;DHT22;701;52.526;13.408;2023-04-12T15:57:21;15.20;3.90
1413;DHT22;701;52.526;13.408;2023-04-12T15:59:48;15.20;4.90
1413;DHT22;701;52.526;13.408;2023-04-12T16:02:15;15.30;4.90
1413;DHT22;701;52.526;13.408;2023-04-12T16:04:42;15.40;5.50
1413;DHT22;701;52.526;13.408;2023-04-12T16:07:07;15.50;5.50
1413;DHT22;701;52.526;13.408;2023-04-12T16:09:33;15.60;5.50
1413;DHT22;701;52.526;13.408;2023-04-12T16:12:00;15.50;6.00
1413;DHT22;701;52.526;13.408;2023-04-12T16:14:28;15.50;6.50
1413;DHT22;701;52.526;13.408;2023-04-12T16:16:55;15.40;6.70
1413;DHT22;701;52.526;13.408;2023-04-12T16:19:22;15.30;7.30
1413;DHT22;701;52.526;13.408;2023-04-12T16:21:48;15.20;7.80
1413;DHT22;701;52.526;13.408;2023-04-12T16:24:15;15.10;8.00
1413;DHT22;701;52.526;13.408;2023-04-12T16:26:40;15.10;9.00
1413;DHT22;701;52.526;13.408;2023-04-12T16:29:06;15.00;8.90
1413;DHT22;701;52.526;13.408;2023-04-12T16:31:32;15.00;9.00
1413;DHT22;701;52.526;13.408;2023-04-12T16:33:58;14.90;9.30
1413;DHT22;701;52.526;13.408;2023-04-12T16:36:24;14.80;9.10
1413;DHT22;701;52.526;13.408;2023-04-12T16:38:52;14.60;9.60
1413;DHT22;701;52.526;13.408;2023-04-12T16:41:19;14.50;10.00
1413;DHT22;701;52.526;13.408;2023-04-12T16:43:46;14.40;10.40
1413;DHT22;701;52.526;13.408;2023-04-12T16:46:12;14.40;11.30
1413;DHT22;701;52.526;13.408;2023-04-12T16:48:39;14.30;10.90
1413;DHT22;701;52.526;13.408;2023-04-12T16:51:07;14.20;11.10
1413;DHT22;701;52.526;13.408;2023-04-12T16:53:35;14.20;11.80
1413;DHT22;701;52.526;13.408;2023-04-12T16:56:01;14.10;11.40
1413;DHT22;701;52.526;13.408;2023-04-12T16:58:27;14.00;12.10
1413;DHT22;701;52.526;13.408;2023-04-12T17:00:53;13.90;12.80